createdAt,value
2022-10-22T00:15:26.857Z,14.02
2022-10-22T00:18:58.438Z,10.93
2022-10-22T00:22:45.375Z,15.27
2022-10-22T01:02:18.688Z,10.07
2022-10-22T01:15:50.623Z,13.50
2022-10-22T01:19:47.427Z,12.65
2022-10-22T01:24:07.662Z,9.65
2022-10-22T01:40:09.164Z,10.95
2022-10-22T01:43:47.584Z,10.77
2022-10-22T01:47:22.391Z,10.63
2022-10-22T02:02:58.275Z,13.13
2022-10-22T02:06:39.374Z,10.63
2022-10-22T02:10:03.183Z,13.45
2022-10-22T02:14:03.486Z,10.10
2022-10-22T02:29:21.587Z,13.82
2022-10-22T02:33:29.385Z,9.55
2022-10-22T02:37:25.644Z,10.77
2022-10-22T02:40:55.461Z,11.82
2022-10-22T02:52:39.068Z,10.70
2022-10-22T03:34:47.784Z,12.70
2022-10-22T03:42:25.441Z,13.70
2022-10-22T03:45:33.573Z,12.75
2022-10-22T03:48:48.331Z,12.15
2022-10-22T03:51:56.363Z,16.60
2022-10-22T03:55:05.785Z,12.48
2022-10-22T03:58:21.407Z,12.97
2022-10-22T04:01:49.623Z,17.12
2022-10-22T04:05:25.232Z,12.82
2022-10-22T04:08:53.654Z,10.10
2022-10-22T04:12:21.695Z,13.38
2022-10-22T04:15:49.333Z,10.17
2022-10-22T04:18:59.194Z,17.00
2022-10-22T04:22:07.458Z,12.63
2022-10-22T04:25:22.379Z,12.13
2022-10-22T04:28:26.787Z,13.43
2022-10-22T04:31:41.350Z,12.27
2022-10-22T04:34:43.515Z,12.88
2022-10-22T04:37:59.395Z,10.40
2022-10-22T04:41:09.576Z,16.48
2022-10-22T04:44:37.667Z,12.57
2022-10-22T04:47:52.470Z,13.13
2022-10-22T04:51:00.414Z,14.15
2022-10-22T04:54:08.838Z,15.35
2022-10-22T04:57:17.379Z,13.73
2022-10-22T05:08:23.450Z,13.02
2022-10-22T05:12:02.396Z,12.82
2022-10-22T05:15:49.419Z,14.38
2022-10-22T05:19:22.359Z,13.40
2022-10-22T05:23:02.194Z,14.13
2022-10-22T05:26:30.403Z,14.10
2022-10-22T05:30:05.698Z,16.33
2022-10-22T05:33:35.517Z,16.23
2022-10-22T05:37:04.047Z,18.70
2022-10-22T05:40:52.420Z,17.47
2022-10-22T05:44:27.363Z,15.52
2022-10-22T05:47:49.779Z,14.60
2022-10-22T05:51:08.372Z,17.62
2022-10-22T05:54:23.359Z,13.32
2022-10-22T05:57:32.009Z,14.73
2022-10-22T06:00:47.348Z,15.13
2022-10-22T06:03:51.576Z,14.13
2022-10-22T06:07:07.588Z,15.20
2022-10-22T06:10:23.461Z,15.48
2022-10-22T06:14:18.407Z,14.73
2022-10-22T06:18:07.167Z,14.73
2022-10-22T06:21:36.424Z,18.17
2022-10-22T06:25:30.379Z,13.60
2022-10-22T06:28:39.377Z,13.23
2022-10-22T06:31:47.367Z,14.20
2022-10-22T06:35:19.016Z,14.20
2022-10-22T06:38:33.400Z,11.75
2022-10-22T06:42:01.440Z,13.48
2022-10-22T06:45:10.554Z,14.25
2022-10-22T06:48:18.643Z,14.03
2022-10-22T06:51:27.478Z,12.95
2022-10-22T06:54:42.624Z,13.85
2022-10-22T06:57:44.746Z,15.38
2022-10-22T07:01:22.721Z,15.25
2022-10-22T07:05:10.442Z,13.80
2022-10-22T07:08:53.549Z,13.85
2022-10-22T07:24:32.938Z,12.97
2022-10-22T07:27:41.658Z,17.35
2022-10-22T07:30:50.237Z,16.48
2022-10-22T07:37:47.876Z,12.25
2022-10-22T07:41:16.474Z,15.90
2022-10-22T07:45:10.748Z,15.30
2022-10-22T07:48:58.402Z,19.60
2022-10-22T07:56:52.435Z,16.27
2022-10-22T08:00:24.604Z,15.50
2022-10-22T08:03:34.443Z,13.15
2022-10-22T08:06:45.812Z,15.50
2022-10-22T08:10:03.423Z,17.05
2022-10-22T08:13:45.641Z,16.67
2022-10-22T08:17:32.774Z,16.80
2022-10-22T08:21:21.028Z,15.07
2022-10-22T08:25:09.612Z,15.23
2022-10-22T08:28:58.448Z,17.87
2022-10-22T08:32:54.138Z,16.12
2022-10-22T08:40:01.432Z,15.65
2022-10-22T08:44:18.240Z,13.62
2022-10-22T08:48:15.870Z,16.05
2022-10-22T08:51:50.703Z,15.85
2022-10-22T08:55:02.404Z,19.33
2022-10-22T09:26:20.440Z,19.83
2022-10-22T09:29:35.632Z,19.12
2022-10-22T09:32:50.434Z,17.47
2022-10-22T09:35:58.526Z,20.00
2022-10-22T09:39:43.703Z,20.00
2022-10-22T09:43:29.346Z,16.92
2022-10-22T09:55:20.227Z,22.90
2022-10-22T09:59:26.488Z,18.27
2022-10-22T10:03:03.500Z,19.20
2022-10-22T10:06:25.206Z,21.92
2022-10-22T10:22:25.715Z,29.80
2022-10-22T10:54:50.544Z,23.70
2022-10-22T10:58:36.800Z,20.08
2022-10-22T11:06:34.252Z,23.70
2022-10-22T11:10:20.600Z,28.80
2022-10-22T11:18:10.203Z,25.25
2022-10-22T11:21:55.879Z,22.40
2022-10-22T11:25:46.666Z,20.98
2022-10-22T11:29:32.831Z,21.27
2022-10-22T11:33:14.266Z,19.62
2022-10-22T11:36:49.800Z,22.58
2022-10-22T11:40:08.655Z,18.65
2022-10-22T11:44:13.791Z,21.67
2022-10-22T11:56:36.467Z,20.17
2022-10-22T11:59:51.819Z,18.62
2022-10-22T12:03:10.758Z,21.70
2022-10-22T12:06:22.537Z,18.07
2022-10-22T12:09:58.494Z,19.15
2022-10-22T12:13:23.473Z,21.02
2022-10-22T12:17:02.523Z,20.60
2022-10-22T12:20:20.485Z,16.15
2022-10-22T12:23:40.467Z,18.73
2022-10-22T12:26:55.721Z,21.80
2022-10-22T12:29:59.657Z,21.45
2022-10-22T12:33:26.559Z,20.65
2022-10-22T12:36:36.472Z,19.50
2022-10-22T12:39:52.504Z,20.27
2022-10-22T12:42:57.648Z,17.73
2022-10-22T12:46:18.506Z,22.33
2022-10-22T12:49:29.519Z,19.75
2022-10-22T12:52:38.383Z,17.27
2022-10-22T12:55:46.490Z,21.37
2022-10-22T13:17:46.592Z,17.15
2022-10-22T13:29:21.674Z,20.15
2022-10-22T13:37:04.627Z,19.20
2022-10-22T13:48:21.522Z,18.40
2022-10-22T13:51:33.811Z,22.07
2022-10-22T13:54:41.500Z,24.90
2022-10-22T13:57:50.506Z,23.12
2022-10-22T14:01:42.841Z,23.02
2022-10-22T14:09:11.666Z,21.67
2022-10-22T14:12:26.916Z,24.35
2022-10-22T14:15:52.603Z,21.55
2022-10-22T14:19:14.456Z,22.62
2022-10-22T14:22:31.813Z,23.92
2022-10-22T14:25:53.536Z,21.23
2022-10-22T14:29:11.510Z,23.58
2022-10-22T14:32:47.996Z,21.40
2022-10-22T14:36:04.770Z,20.98
2022-10-22T14:47:52.524Z,21.12
2022-10-22T14:51:10.965Z,24.12
2022-10-22T14:58:32.721Z,22.45
2022-10-22T15:01:41.163Z,21.50
2022-10-22T15:04:49.645Z,23.58
2022-10-22T15:08:05.709Z,21.92
2022-10-22T15:11:12.011Z,17.73
2022-10-22T15:14:26.567Z,22.33
2022-10-22T15:17:28.372Z,21.07
2022-10-22T15:20:42.700Z,19.67
2022-10-22T15:23:51.551Z,22.25
2022-10-22T15:27:00.275Z,18.92
2022-10-22T15:30:14.558Z,23.08
2022-10-22T15:33:16.592Z,18.40
2022-10-22T15:37:04.179Z,18.67
2022-10-22T15:40:52.567Z,16.95
2022-10-22T15:44:24.064Z,19.17
2022-10-22T15:47:56.778Z,16.77
2022-10-22T15:51:51.533Z,18.67
2022-10-22T15:55:03.125Z,20.40
2022-10-22T15:58:14.616Z,20.65
2022-10-22T16:01:31.741Z,21.25
2022-10-22T16:04:39.642Z,18.20
2022-10-22T16:07:48.179Z,18.53
2022-10-22T16:11:02.534Z,18.77
2022-10-22T16:14:12.607Z,19.85
2022-10-22T16:17:21.097Z,15.50
2022-10-22T16:20:35.574Z,19.73
2022-10-22T16:23:37.475Z,16.70
2022-10-22T16:26:54.575Z,17.62
2022-10-22T16:29:56.382Z,19.80
2022-10-22T16:33:12.620Z,20.73
2022-10-22T16:36:17.514Z,20.40
2022-10-22T16:39:33.567Z,25.93
2022-10-22T16:42:44.571Z,23.85
2022-10-22T16:45:53.224Z,24.95
2022-10-22T16:49:02.614Z,19.40
2022-10-22T16:52:17.602Z,20.60
2022-10-22T16:55:32.584Z,22.30
2022-10-22T16:58:47.455Z,22.73
2022-10-22T17:01:55.638Z,21.87
2022-10-22T17:05:11.557Z,19.23
2022-10-22T17:08:19.644Z,25.33
2022-10-22T17:11:28.368Z,21.33
2022-10-22T17:14:42.735Z,22.92
2022-10-22T17:17:51.584Z,24.40
2022-10-22T17:21:01.161Z,20.33
2022-10-22T17:24:16.569Z,23.87
2022-10-22T17:27:18.612Z,22.23
2022-10-22T17:30:34.684Z,26.15
2022-10-22T17:33:43.563Z,26.17
2022-10-22T17:36:55.200Z,23.15
2022-10-22T17:40:04.619Z,24.77
2022-10-22T17:43:14.507Z,22.00
2022-10-22T17:46:27.578Z,23.25
2022-10-22T17:49:42.863Z,23.33
2022-10-22T17:52:51.666Z,20.75
2022-10-22T17:56:08.571Z,22.52
2022-10-22T17:59:19.648Z,21.70
2022-10-22T18:02:34.660Z,24.77
2022-10-22T18:05:36.544Z,25.52
2022-10-22T18:11:54.827Z,24.17
2022-10-22T18:15:09.654Z,24.60
2022-10-22T18:18:11.803Z,22.77
2022-10-22T18:21:28.658Z,22.95
2022-10-22T18:24:37.616Z,23.95
2022-10-22T18:27:47.904Z,22.77
2022-10-22T18:31:04.604Z,23.17
2022-10-22T18:34:14.720Z,23.52
2022-10-22T18:37:24.607Z,21.33
2022-10-22T18:40:34.547Z,23.42
2022-10-22T18:43:43.608Z,23.75
2022-10-22T18:46:52.404Z,23.43
2022-10-22T18:50:07.675Z,21.37
2022-10-22T18:53:17.378Z,20.95
2022-10-22T18:56:27.703Z,26.50
2022-10-22T18:59:49.624Z,23.95
2022-10-22T19:03:04.915Z,30.27
2022-10-22T19:06:15.721Z,24.80
2022-10-22T19:09:23.704Z,22.25
2022-10-22T19:12:39.607Z,23.23
2022-10-22T19:15:48.348Z,23.17
2022-10-22T19:19:10.666Z,27.13
2022-10-22T19:22:20.141Z,21.80
2022-10-22T19:25:34.612Z,28.27
2022-10-22T19:28:50.612Z,26.42
2022-10-22T19:31:59.821Z,25.52
2022-10-22T19:35:08.630Z,25.20
2022-10-22T19:38:17.346Z,27.15
2022-10-22T19:41:27.614Z,23.73
2022-10-22T19:44:37.278Z,27.42
2022-10-22T19:47:46.648Z,28.08
2022-10-22T19:51:04.975Z,27.83
2022-10-22T19:54:19.619Z,28.17
2022-10-22T19:57:29.393Z,25.83
2022-10-22T20:00:39.694Z,26.75
2022-10-22T20:03:51.497Z,26.00
2022-10-22T20:07:01.640Z,26.77
2022-10-22T20:10:16.631Z,27.23
2022-10-22T20:13:25.494Z,30.42
2022-10-22T20:16:35.615Z,26.92
2022-10-22T20:19:44.791Z,33.80
2022-10-22T20:23:00.697Z,25.63
2022-10-22T20:26:16.683Z,28.20
2022-10-22T20:29:18.492Z,27.62
2022-10-22T20:32:32.680Z,26.75
2022-10-22T20:35:48.865Z,27.70
2022-10-22T20:39:04.964Z,26.80
2022-10-22T20:42:13.632Z,25.30
2022-10-22T20:45:23.396Z,28.02
2022-10-22T20:48:32.659Z,28.65
2022-10-22T20:51:47.899Z,30.50
2022-10-22T20:54:55.711Z,28.37
2022-10-22T20:58:04.452Z,22.75
2022-10-22T21:01:12.675Z,26.80
2022-10-22T21:04:28.684Z,23.73
2022-10-22T21:07:43.950Z,24.33
2022-10-22T21:10:58.718Z,28.67
2022-10-22T21:14:00.328Z,28.65
2022-10-22T21:17:14.675Z,28.92
2022-10-22T21:20:17.858Z,29.17
2022-10-22T21:23:34.639Z,27.48
2022-10-22T21:26:43.703Z,26.30
2022-10-22T21:29:58.650Z,29.90
2022-10-22T21:33:07.258Z,26.67
2022-10-22T21:36:23.189Z,27.70
2022-10-22T21:39:24.932Z,27.52
2022-10-22T21:42:39.648Z,24.90
2022-10-22T21:45:41.408Z,27.62
2022-10-22T21:49:00.695Z,29.70
2022-10-22T21:52:15.712Z,26.70
2022-10-22T21:55:24.632Z,31.75
2022-10-22T21:58:42.667Z,26.47
2022-10-22T22:01:51.195Z,28.12
2022-10-22T22:05:05.651Z,32.15
2022-10-22T22:08:13.715Z,27.92
2022-10-22T22:11:24.951Z,34.10
2022-10-22T22:14:32.720Z,27.17
2022-10-22T22:17:45.856Z,28.70
2022-10-22T22:20:53.655Z,28.90
2022-10-22T22:24:02.469Z,28.90
2022-10-22T22:27:10.753Z,26.55
2022-10-22T22:30:19.310Z,25.87
2022-10-22T22:33:28.655Z,27.70
2022-10-22T22:36:46.690Z,28.50
2022-10-22T22:39:48.488Z,27.77
2022-10-22T22:43:02.705Z,29.10
2022-10-22T22:46:06.910Z,30.60
2022-10-22T22:49:21.739Z,28.87
2022-10-22T22:52:23.374Z,32.63
2022-10-22T22:55:37.660Z,27.95
2022-10-22T22:58:40.958Z,25.27
2022-10-22T23:01:56.709Z,22.87
2022-10-22T23:04:58.310Z,27.75
2022-10-22T23:08:14.663Z,27.00
2022-10-22T23:11:22.700Z,28.87
2022-10-22T23:14:37.679Z,28.40
2022-10-22T23:17:45.687Z,25.77
2022-10-22T23:20:54.402Z,31.45
2022-10-22T23:24:05.672Z,30.35
2022-10-22T23:27:20.683Z,28.02
2022-10-22T23:30:28.683Z,27.70
2022-10-22T23:33:37.180Z,31.43
2022-10-22T23:36:52.670Z,29.27
2022-10-22T23:40:00.671Z,25.80
2022-10-22T23:43:16.767Z,27.30
2022-10-22T23:46:18.435Z,28.40
2022-10-22T23:49:32.696Z,29.47
2022-10-22T23:52:34.300Z,28.73
2022-10-22T23:55:49.734Z,24.05
2022-10-22T23:58:52.171Z,28.70
